CheckWX is a tool to help pilots better visualize weather data.  It is not intended as a substitute for an official pre-flight weather briefing.

12:44:28 UTC

EGMD TAF
Lydd Airport
Lydd, Ashford, United Kingdom
TAF EGMD 221055Z 2212/2221 22006KT 8000 BKN007 BECMG 2212/2214 9999 SCT025 PROB40 TEMPO 2214/2218 8000 BKN009

Mar-22@
12:00 UTC

Mar-22 @ 12:00 UTC

Mar-22@
21:00 UTC

Mar-22 @ 21:00 UTC

TAF EGMD 221055Z 2212/2221 22006KT 8000 BKN007
Wind
  • 220° at 6 KTS
Cloud Levels
  • Broken at 700' AGL

Mar-22@
12:00 UTC

Mar-22 @ 12:00 UTC

Mar-22@
21:00 UTC

Mar-22 @ 21:00 UTC

BECMG 2212/2214 9999 SCT025

Becoming

Becoming Conditions expected by Fri, Mar 22, 2019 @ 14:00 UTC

Wind
  • 220° at 6 KTS
Cloud Levels
  • Scattered at 2,500' AGL

Mar-22@
14:00 UTC

Mar-22 @ 14:00 UTC

Mar-22@
18:00 UTC

Mar-22 @ 18:00 UTC

PROB40 TEMPO 2214/2218 8000 BKN009

Temporary - 40% Likelihood

Temporary - 40% Likelihood during this time.

Cloud Levels
  • Broken at 900' AGL